createdAt,value
2022-10-19T00:00:01.760Z,9.78
2022-10-19T00:02:29.416Z,9.72
2022-10-19T00:04:57.117Z,9.69
2022-10-19T00:07:24.746Z,9.68
2022-10-19T00:09:52.728Z,9.66
2022-10-19T00:12:20.373Z,9.60
2022-10-19T00:14:49.325Z,9.53
2022-10-19T00:17:17.425Z,9.47
2022-10-19T00:19:45.039Z,9.36
2022-10-19T00:22:14.062Z,9.30
2022-10-19T00:24:41.976Z,9.26
2022-10-19T00:27:09.604Z,9.23
2022-10-19T00:29:39.747Z,9.17
2022-10-19T00:32:08.702Z,9.10
2022-10-19T00:34:36.317Z,9.03
2022-10-19T00:37:04.101Z,8.95
2022-10-19T00:39:31.725Z,8.93
2022-10-19T00:41:59.394Z,8.91
2022-10-19T00:44:59.614Z,8.88
2022-10-19T00:47:32.762Z,8.83
2022-10-19T00:50:01.065Z,8.84
2022-10-19T00:52:29.090Z,8.81
2022-10-19T00:54:58.768Z,8.79
2022-10-19T00:57:30.574Z,8.77
2022-10-19T00:59:59.668Z,8.74
2022-10-19T01:02:28.685Z,8.70
2022-10-19T01:04:56.777Z,8.66
2022-10-19T01:07:26.243Z,8.61
2022-10-19T01:09:54.362Z,8.55
2022-10-19T01:12:36.323Z,8.51
2022-10-19T01:15:20.345Z,8.44
2022-10-19T01:17:57.391Z,8.42
2022-10-19T01:20:43.094Z,8.37
2022-10-19T01:23:29.733Z,8.36
2022-10-19T01:26:11.325Z,8.24
2022-10-19T01:28:48.666Z,8.13
2022-10-19T01:31:25.010Z,8.04
2022-10-19T01:33:59.980Z,8.02
2022-10-19T01:36:29.902Z,8.01
2022-10-19T01:39:04.041Z,7.99
2022-10-19T01:41:39.908Z,7.96
2022-10-19T01:44:14.938Z,7.94
2022-10-19T01:46:48.021Z,7.92
2022-10-19T01:49:23.705Z,7.87
2022-10-19T01:51:56.454Z,7.80
2022-10-19T01:54:27.563Z,7.76
2022-10-19T01:56:59.297Z,7.67
2022-10-19T01:59:28.187Z,7.63
2022-10-19T02:01:58.764Z,7.63
2022-10-19T02:04:27.019Z,7.61
2022-10-19T02:06:56.103Z,7.58
2022-10-19T02:09:24.048Z,7.55
2022-10-19T02:11:57.557Z,7.48
2022-10-19T02:14:30.074Z,7.44
2022-10-19T02:17:04.186Z,7.38
2022-10-19T02:19:31.904Z,7.30
2022-10-19T02:22:02.854Z,7.28
2022-10-19T02:24:30.717Z,7.25
2022-10-19T02:27:00.513Z,7.18
2022-10-19T02:29:28.823Z,7.13
2022-10-19T02:31:56.286Z,7.07
2022-10-19T02:34:25.376Z,7.03
2022-10-19T02:36:53.140Z,6.96
2022-10-19T02:39:21.430Z,6.97
2022-10-19T02:41:51.343Z,7.00
2022-10-19T02:44:22.677Z,6.98
2022-10-19T02:46:56.056Z,6.97
2022-10-19T02:49:26.456Z,6.95
2022-10-19T02:52:00.142Z,6.92
2022-10-19T02:54:28.936Z,6.93
2022-10-19T02:56:56.845Z,6.90
2022-10-19T02:59:24.734Z,6.85
2022-10-19T03:01:52.408Z,6.85
2022-10-19T03:04:20.059Z,6.87
2022-10-19T03:06:49.021Z,6.88
2022-10-19T03:09:16.705Z,6.86
2022-10-19T03:11:44.285Z,6.80
2022-10-19T03:14:12.156Z,6.73
2022-10-19T03:16:39.721Z,6.73
2022-10-19T03:19:07.576Z,6.68
2022-10-19T03:21:35.640Z,6.66
2022-10-19T03:24:04.729Z,6.61
2022-10-19T03:26:32.369Z,6.56
2022-10-19T03:29:01.389Z,6.53
2022-10-19T03:31:29.088Z,6.52
2022-10-19T03:33:56.685Z,6.51
2022-10-19T03:36:25.744Z,6.49
2022-10-19T03:38:54.027Z,6.50
2022-10-19T03:41:23.453Z,6.49
2022-10-19T03:43:51.312Z,6.49
2022-10-19T03:46:19.910Z,6.48
2022-10-19T03:48:47.945Z,6.44
2022-10-19T03:51:18.513Z,6.36
2022-10-19T03:53:46.786Z,6.34
2022-10-19T03:56:15.268Z,6.31
2022-10-19T03:58:46.157Z,6.27
2022-10-19T04:01:15.882Z,6.27
2022-10-19T04:03:43.932Z,6.26
2022-10-19T04:06:18.192Z,6.24
2022-10-19T04:08:50.027Z,6.19
2022-10-19T04:11:19.129Z,6.18
2022-10-19T04:13:51.018Z,6.15
2022-10-19T04:16:20.609Z,6.09
2022-10-19T04:18:48.781Z,6.09
2022-10-19T04:21:25.537Z,6.08
2022-10-19T04:24:00.409Z,6.08
2022-10-19T04:26:28.323Z,6.07
2022-10-19T04:28:59.515Z,6.01
2022-10-19T04:31:28.168Z,5.96
2022-10-19T04:33:56.268Z,5.92
2022-10-19T04:36:24.506Z,5.91
2022-10-19T04:38:52.498Z,5.90
2022-10-19T04:41:22.046Z,5.88
2022-10-19T04:43:51.175Z,5.87
2022-10-19T04:46:20.993Z,5.86
2022-10-19T04:48:49.331Z,5.82
2022-10-19T04:51:19.070Z,5.78
2022-10-19T04:53:48.177Z,5.76
2022-10-19T04:56:17.972Z,5.74
2022-10-19T04:58:46.088Z,5.74
2022-10-19T05:01:15.566Z,5.73
2022-10-19T05:03:47.495Z,5.73
2022-10-19T05:06:17.713Z,5.72
2022-10-19T05:08:45.297Z,5.71
2022-10-19T05:11:18.033Z,5.71
2022-10-19T05:13:47.712Z,5.67
2022-10-19T05:16:17.813Z,5.60
2022-10-19T05:18:49.838Z,5.57
2022-10-19T05:21:18.201Z,5.55
2022-10-19T05:23:45.996Z,5.55
2022-10-19T05:26:15.397Z,5.56
2022-10-19T05:28:44.623Z,5.53
2022-10-19T05:31:14.666Z,5.51
2022-10-19T05:33:43.585Z,5.49
2022-10-19T05:36:14.610Z,5.48
2022-10-19T05:38:42.649Z,5.41
2022-10-19T05:41:10.569Z,5.34
2022-10-19T05:43:39.313Z,5.29
2022-10-19T05:46:09.391Z,5.26
2022-10-19T05:48:39.327Z,5.22
2022-10-19T05:51:08.585Z,5.15
2022-10-19T05:56:16.663Z,5.13
2022-10-19T05:58:44.407Z,5.14
2022-10-19T06:01:12.184Z,5.11
2022-10-19T06:03:40.284Z,5.04
2022-10-19T06:06:09.794Z,5.02
2022-10-19T06:08:39.549Z,5.03
2022-10-19T06:11:09.026Z,5.04
2022-10-19T06:13:37.027Z,5.02
2022-10-19T06:16:05.315Z,4.99
2022-10-19T06:18:35.428Z,4.99
2022-10-19T06:21:08.992Z,5.00
2022-10-19T06:23:39.058Z,5.00
2022-10-19T06:26:08.669Z,5.01
2022-10-19T06:28:38.106Z,4.99
2022-10-19T06:31:08.510Z,4.99
2022-10-19T06:33:37.356Z,5.00
2022-10-19T06:36:08.476Z,5.04
2022-10-19T06:38:36.271Z,5.07
2022-10-19T06:41:05.759Z,5.07
2022-10-19T06:43:34.043Z,5.08
2022-10-19T06:46:05.357Z,5.07
2022-10-19T06:48:33.082Z,5.09
2022-10-19T06:51:05.905Z,5.12
2022-10-19T06:53:34.374Z,5.14
2022-10-19T06:56:04.143Z,5.15
2022-10-19T06:58:36.100Z,5.15
2022-10-19T07:01:05.115Z,5.17
2022-10-19T07:03:32.782Z,5.18
2022-10-19T07:06:04.813Z,5.21
2022-10-19T07:08:33.501Z,5.24
2022-10-19T07:11:02.825Z,5.29
2022-10-19T07:13:32.311Z,5.35
2022-10-19T07:16:05.513Z,5.42
2022-10-19T07:18:34.991Z,5.47
2022-10-19T07:21:04.504Z,5.53
2022-10-19T07:23:33.662Z,5.61
2022-10-19T07:26:05.747Z,5.69
2022-10-19T07:28:33.950Z,5.80
2022-10-19T07:31:06.204Z,6.01
2022-10-19T07:33:34.059Z,6.24
2022-10-19T07:36:02.492Z,6.49
2022-10-19T07:38:31.573Z,6.72
2022-10-19T07:41:04.385Z,6.94
2022-10-19T07:43:32.137Z,7.13
2022-10-19T07:46:01.107Z,7.32
2022-10-19T07:48:31.542Z,7.53
2022-10-19T07:50:59.600Z,7.75
2022-10-19T07:53:27.196Z,7.96
2022-10-19T07:55:54.786Z,8.15
2022-10-19T07:58:22.523Z,8.35
2022-10-19T08:00:50.167Z,8.54
2022-10-19T08:06:08.361Z,8.94
2022-10-19T08:08:37.134Z,9.11
2022-10-19T08:11:08.725Z,9.30
2022-10-19T08:13:36.821Z,9.50
2022-10-19T08:16:04.543Z,9.68
2022-10-19T08:21:08.623Z,10.12
2022-10-19T08:23:36.239Z,10.30
2022-10-19T08:26:03.914Z,10.52
2022-10-19T08:28:31.518Z,10.74
2022-10-19T08:30:59.143Z,10.98
2022-10-19T08:33:27.542Z,11.22
2022-10-19T08:35:55.185Z,11.50
2022-10-19T08:38:24.145Z,11.76
2022-10-19T08:40:51.936Z,12.01
2022-10-19T08:43:25.257Z,12.26
2022-10-19T08:46:01.816Z,12.48
2022-10-19T08:48:32.912Z,12.68
2022-10-19T08:51:02.717Z,12.92
2022-10-19T08:53:41.206Z,13.10
2022-10-19T08:56:38.907Z,13.31
2022-10-19T08:59:14.486Z,13.52
2022-10-19T09:01:48.209Z,13.68
2022-10-19T09:04:25.187Z,13.90
2022-10-19T09:07:08.181Z,14.09
2022-10-19T09:09:43.729Z,14.23
2022-10-19T09:12:18.756Z,14.42
2022-10-19T09:14:57.226Z,14.66
2022-10-19T09:17:25.259Z,14.83
2022-10-19T09:30:21.071Z,15.81
2022-10-19T09:32:51.033Z,15.99
2022-10-19T09:35:27.491Z,16.12
2022-10-19T09:37:56.715Z,16.23
2022-10-19T09:40:26.895Z,16.40
2022-10-19T09:42:58.499Z,16.58
2022-10-19T09:45:35.267Z,16.79
2022-10-19T09:48:12.777Z,17.04
2022-10-19T09:50:44.215Z,17.32
2022-10-19T09:53:20.432Z,17.55
2022-10-19T09:55:52.260Z,17.72
2022-10-19T09:58:21.700Z,17.92
2022-10-19T10:00:51.528Z,18.03
2022-10-19T10:03:28.940Z,17.96
2022-10-19T10:05:58.714Z,17.89
2022-10-19T10:08:28.931Z,17.92
2022-10-19T10:11:06.985Z,18.04
2022-10-19T10:13:40.221Z,18.23
2022-10-19T10:16:10.761Z,18.31
2022-10-19T10:18:50.982Z,18.37
2022-10-19T10:21:25.674Z,18.63
2022-10-19T10:24:03.607Z,18.77
2022-10-19T10:26:31.356Z,18.85
2022-10-19T10:29:01.555Z,18.94
2022-10-19T10:31:31.050Z,19.04
2022-10-19T10:34:12.208Z,19.13
2022-10-19T10:36:52.877Z,19.23
2022-10-19T10:39:20.535Z,19.16
2022-10-19T10:41:50.041Z,19.12
2022-10-19T10:44:23.220Z,19.31
2022-10-19T10:46:56.470Z,19.47
2022-10-19T10:49:27.670Z,19.60
2022-10-19T10:51:58.000Z,19.88
2022-10-19T10:54:27.728Z,20.16
2022-10-19T10:57:13.928Z,20.36
2022-10-19T10:59:50.395Z,20.41
2022-10-19T11:02:36.739Z,20.44
2022-10-19T11:05:08.499Z,20.55
2022-10-19T11:07:37.824Z,20.77
2022-10-19T11:10:14.388Z,20.89
2022-10-19T11:12:48.688Z,21.01
2022-10-19T11:15:23.794Z,21.29
2022-10-19T11:18:02.647Z,21.46
2022-10-19T11:20:33.383Z,21.58
2022-10-19T11:23:09.594Z,21.85
2022-10-19T11:25:49.334Z,22.27
2022-10-19T11:28:30.832Z,22.72
2022-10-19T11:31:07.525Z,23.28
2022-10-19T11:33:48.842Z,23.66
2022-10-19T11:36:31.302Z,23.88
2022-10-19T11:39:13.450Z,24.29
2022-10-19T11:41:50.334Z,24.73
2022-10-19T11:44:30.384Z,24.99
2022-10-19T11:47:17.739Z,25.22
2022-10-19T11:49:56.202Z,25.12
2022-10-19T11:52:32.649Z,25.13
2022-10-19T11:55:14.919Z,25.31
2022-10-19T11:57:48.018Z,25.62
2022-10-19T12:00:39.337Z,25.97
2022-10-19T12:03:34.620Z,26.24
2022-10-19T12:06:11.806Z,26.21
2022-10-19T12:08:55.395Z,26.58
2022-10-19T12:11:36.533Z,27.07
2022-10-19T12:14:07.078Z,27.02
2022-10-19T12:16:40.928Z,27.07
2022-10-19T12:19:16.985Z,27.35
2022-10-19T12:21:46.726Z,27.54
2022-10-19T12:24:18.618Z,27.41
2022-10-19T12:26:48.045Z,27.51
2022-10-19T12:29:18.786Z,27.48
2022-10-19T12:31:48.081Z,27.28
2022-10-19T12:34:28.669Z,27.33
2022-10-19T12:36:59.917Z,27.39
2022-10-19T12:39:35.937Z,27.45
2022-10-19T12:42:13.658Z,27.52
2022-10-19T12:45:14.497Z,27.82
2022-10-19T12:47:42.003Z,28.11
2022-10-19T12:50:10.902Z,28.11
2022-10-19T12:52:44.360Z,28.46
2022-10-19T12:55:34.597Z,28.53
2022-10-19T12:58:05.854Z,28.75
2022-10-19T13:00:35.318Z,28.84
2022-10-19T13:03:07.066Z,29.06
2022-10-19T13:05:36.981Z,29.32
2022-10-19T13:08:10.601Z,29.59
2022-10-19T13:10:41.440Z,29.81
2022-10-19T13:13:52.950Z,30.06
2022-10-19T13:16:54.254Z,29.92
2022-10-19T13:19:23.474Z,29.87
2022-10-19T13:21:55.239Z,29.76
2022-10-19T13:24:30.771Z,29.53
2022-10-19T13:27:28.009Z,29.24
2022-10-19T13:29:56.307Z,29.21
2022-10-19T13:32:44.236Z,28.95
2022-10-19T13:35:24.757Z,28.87
2022-10-19T13:38:12.846Z,28.68
2022-10-19T13:40:57.123Z,28.43
2022-10-19T13:43:27.093Z,28.31
2022-10-19T13:45:56.278Z,28.26
2022-10-19T13:48:32.721Z,28.29
2022-10-19T13:51:11.920Z,28.06
2022-10-19T13:53:49.877Z,27.68
2022-10-19T13:56:39.979Z,27.46
2022-10-19T13:59:28.694Z,27.16
2022-10-19T14:02:31.713Z,27.08
2022-10-19T14:05:19.554Z,27.08
2022-10-19T14:08:02.098Z,26.79
2022-10-19T14:10:33.022Z,26.31
2022-10-19T14:13:02.972Z,26.19
2022-10-19T14:15:33.338Z,26.16
2022-10-19T14:18:03.843Z,26.09
2022-10-19T14:20:35.377Z,25.96
2022-10-19T14:23:21.324Z,25.85
2022-10-19T14:25:55.819Z,25.65
2022-10-19T14:28:24.484Z,25.53
2022-10-19T14:31:00.377Z,25.26
2022-10-19T14:33:29.364Z,25.06
2022-10-19T14:35:57.687Z,25.01
2022-10-19T14:38:32.669Z,24.89
2022-10-19T14:41:02.267Z,24.80
2022-10-19T14:43:31.163Z,24.81
2022-10-19T14:46:13.692Z,24.82
2022-10-19T14:48:45.276Z,24.54
2022-10-19T14:51:23.534Z,24.32
2022-10-19T14:53:55.135Z,24.11
2022-10-19T14:56:28.555Z,23.94
2022-10-19T14:59:00.221Z,23.72
2022-10-19T15:01:28.154Z,23.42
2022-10-19T15:03:56.476Z,23.33
2022-10-19T15:06:27.942Z,23.22
2022-10-19T15:08:58.463Z,23.12
2022-10-19T15:11:31.316Z,23.03
2022-10-19T15:14:04.792Z,23.01
2022-10-19T15:16:52.893Z,23.14
2022-10-19T15:19:27.259Z,23.05
2022-10-19T15:22:13.892Z,23.02
2022-10-19T15:24:55.534Z,22.93
2022-10-19T15:27:32.032Z,22.75
2022-10-19T15:30:01.614Z,22.28
2022-10-19T15:32:33.485Z,21.90
2022-10-19T15:35:01.484Z,21.61
2022-10-19T15:37:29.244Z,21.37
2022-10-19T15:39:57.301Z,21.06
2022-10-19T15:42:37.293Z,20.79
2022-10-19T15:45:26.201Z,20.52
2022-10-19T15:48:18.425Z,20.34
2022-10-19T15:50:48.469Z,20.19
2022-10-19T15:53:16.485Z,19.95
2022-10-19T15:55:44.147Z,19.79
2022-10-19T15:58:14.409Z,19.56
2022-10-19T16:00:42.718Z,19.40
2022-10-19T16:03:10.323Z,19.25
2022-10-19T16:05:38.133Z,19.22
2022-10-19T16:08:10.106Z,19.12
2022-10-19T16:10:40.002Z,19.04
2022-10-19T16:13:07.440Z,18.95
2022-10-19T16:15:36.377Z,18.87
2022-10-19T16:18:04.046Z,18.72
2022-10-19T16:20:31.683Z,18.56
2022-10-19T16:22:59.349Z,18.44
2022-10-19T16:25:26.816Z,18.44
2022-10-19T16:27:54.593Z,18.33
2022-10-19T16:30:22.277Z,18.27
2022-10-19T16:32:51.253Z,18.13
2022-10-19T16:35:18.866Z,17.97
2022-10-19T16:37:46.359Z,17.88
2022-10-19T16:40:14.013Z,17.67
2022-10-19T16:42:41.491Z,17.50
2022-10-19T16:45:10.488Z,17.39
2022-10-19T16:47:38.169Z,17.39
2022-10-19T16:50:07.389Z,17.38
2022-10-19T16:52:35.386Z,17.25
2022-10-19T16:55:03.274Z,17.19
2022-10-19T16:57:30.973Z,17.14
2022-10-19T16:59:58.442Z,17.12
2022-10-19T17:02:26.168Z,16.99
2022-10-19T17:04:53.896Z,16.92
2022-10-19T17:07:22.833Z,16.87
2022-10-19T17:09:54.681Z,16.70
2022-10-19T17:12:22.691Z,16.54
2022-10-19T17:14:51.242Z,16.44
2022-10-19T17:17:18.922Z,16.41
2022-10-19T17:19:46.764Z,16.31
2022-10-19T17:22:14.385Z,16.28
2022-10-19T17:24:46.188Z,16.22
2022-10-19T17:27:13.775Z,16.07
2022-10-19T17:29:41.456Z,15.96
2022-10-19T17:32:09.120Z,15.82
2022-10-19T17:34:36.748Z,15.72
2022-10-19T17:37:04.421Z,15.67
2022-10-19T17:39:32.649Z,15.57
2022-10-19T17:42:03.254Z,15.51
2022-10-19T17:44:31.754Z,15.48
2022-10-19T17:47:00.708Z,15.41
2022-10-19T17:49:29.689Z,15.31
2022-10-19T17:51:57.349Z,15.22
2022-10-19T17:54:25.050Z,15.13
2022-10-19T17:56:52.701Z,15.00
2022-10-19T17:59:30.364Z,14.94
2022-10-19T18:02:02.694Z,14.85
2022-10-19T18:04:30.330Z,14.77
2022-10-19T18:06:58.046Z,14.73
2022-10-19T18:09:25.676Z,14.57
2022-10-19T18:11:53.293Z,14.43
2022-10-19T18:14:23.614Z,14.31
2022-10-19T18:16:52.051Z,14.21
2022-10-19T18:19:19.826Z,14.16
2022-10-19T18:21:49.122Z,14.13
2022-10-19T18:24:20.112Z,14.06
2022-10-19T18:26:48.871Z,14.06
2022-10-19T18:29:19.593Z,13.95
2022-10-19T18:31:51.645Z,13.90
2022-10-19T18:34:22.627Z,13.83
2022-10-19T18:36:50.485Z,13.84
2022-10-19T18:39:18.257Z,13.82
2022-10-19T18:41:46.117Z,13.71
2022-10-19T18:44:14.224Z,13.62
2022-10-19T18:46:42.145Z,13.50
2022-10-19T18:49:12.697Z,13.40
2022-10-19T18:51:40.497Z,13.32
2022-10-19T18:54:08.162Z,13.31
2022-10-19T18:56:36.488Z,13.22
2022-10-19T18:59:04.851Z,13.19
2022-10-19T19:01:32.541Z,13.14
2022-10-19T19:04:07.527Z,13.02
2022-10-19T19:06:38.188Z,12.95
2022-10-19T19:09:08.870Z,12.90
2022-10-19T19:11:38.438Z,12.83
2022-10-19T19:14:07.785Z,12.81
2022-10-19T19:16:37.196Z,12.76
2022-10-19T19:19:05.671Z,12.69
2022-10-19T19:21:34.992Z,12.62
2022-10-19T19:24:06.478Z,12.59
2022-10-19T19:26:36.172Z,12.52
2022-10-19T19:29:04.432Z,12.47
2022-10-19T19:31:32.500Z,12.41
2022-10-19T19:34:01.115Z,12.34
2022-10-19T19:36:29.805Z,12.29
2022-10-19T19:38:59.028Z,12.23
2022-10-19T19:41:28.823Z,12.17
2022-10-19T19:43:57.515Z,12.13
2022-10-19T19:46:25.162Z,12.03
2022-10-19T19:48:59.765Z,11.95
2022-10-19T19:51:28.104Z,11.89
2022-10-19T19:53:55.792Z,11.84
2022-10-19T19:56:24.382Z,11.79
2022-10-19T19:58:57.421Z,11.74
2022-10-19T20:01:25.259Z,11.68
2022-10-19T20:03:53.291Z,11.67
2022-10-19T20:06:23.663Z,11.62
2022-10-19T20:08:53.679Z,11.60
2022-10-19T20:11:21.947Z,11.55
2022-10-19T20:13:49.627Z,11.52
2022-10-19T20:16:28.166Z,11.49
2022-10-19T20:19:02.955Z,11.46
2022-10-19T20:21:31.786Z,11.38
2022-10-19T20:23:59.455Z,11.35
2022-10-19T20:26:28.227Z,11.31
2022-10-19T20:28:55.825Z,11.25
2022-10-19T20:31:25.657Z,11.17
2022-10-19T20:33:53.421Z,11.11
2022-10-19T20:36:23.223Z,11.12
2022-10-19T20:38:53.637Z,11.10
2022-10-19T20:41:23.862Z,11.07
2022-10-19T20:43:51.732Z,11.01
2022-10-19T20:46:22.268Z,11.00
2022-10-19T20:48:52.178Z,10.97
2022-10-19T20:51:23.048Z,10.89
2022-10-19T20:53:52.649Z,10.89
2022-10-19T20:56:23.149Z,10.88
2022-10-19T20:58:55.988Z,10.85
2022-10-19T21:01:24.223Z,10.80
2022-10-19T21:03:54.797Z,10.80
2022-10-19T21:06:24.442Z,10.79
2022-10-19T21:08:52.771Z,10.75
2022-10-19T21:11:23.149Z,10.74
2022-10-19T21:13:54.446Z,10.71
2022-10-19T21:16:23.399Z,10.70
2022-10-19T21:18:52.791Z,10.65
2022-10-19T21:21:22.693Z,10.61
2022-10-19T21:23:54.457Z,10.56
2022-10-19T21:26:22.347Z,10.53
2022-10-19T21:28:53.047Z,10.50
2022-10-19T21:31:21.534Z,10.50
2022-10-19T21:33:49.466Z,10.47
2022-10-19T21:36:19.612Z,10.47
2022-10-19T21:38:47.662Z,10.49
2022-10-19T21:41:16.161Z,10.48
2022-10-19T21:43:43.992Z,10.43
2022-10-19T21:46:14.043Z,10.37
2022-10-19T21:48:42.315Z,10.39
2022-10-19T21:51:21.826Z,10.35
2022-10-19T21:53:49.615Z,10.28
2022-10-19T21:56:17.737Z,10.26
2022-10-19T21:58:46.465Z,10.22
2022-10-19T22:01:14.505Z,10.21
2022-10-19T22:03:42.071Z,10.18
2022-10-19T22:06:09.727Z,10.17
2022-10-19T22:08:39.077Z,10.11
2022-10-19T22:11:07.624Z,10.06
2022-10-19T22:13:35.581Z,10.04
2022-10-19T22:16:07.346Z,10.02
2022-10-19T22:18:34.996Z,10.02
2022-10-19T22:21:04.655Z,9.99
2022-10-19T22:23:32.447Z,9.96
2022-10-19T22:26:01.685Z,9.96
2022-10-19T22:28:29.706Z,9.94
2022-10-19T22:30:57.727Z,9.90
2022-10-19T22:33:26.413Z,9.84
2022-10-19T22:35:55.137Z,9.79
2022-10-19T22:38:23.418Z,9.77
2022-10-19T22:41:46.219Z,9.77
2022-10-19T22:44:15.218Z,9.71
2022-10-19T22:46:42.928Z,9.69
2022-10-19T22:49:10.716Z,9.70
2022-10-19T22:51:38.387Z,9.70
2022-10-19T22:54:06.828Z,9.69
2022-10-19T22:56:34.540Z,9.66
2022-10-19T22:59:03.476Z,9.64
2022-10-19T23:01:32.538Z,9.60
2022-10-19T23:04:00.406Z,9.60
2022-10-19T23:06:28.200Z,9.62
2022-10-19T23:08:55.866Z,9.61
2022-10-19T23:11:25.713Z,9.59
2022-10-19T23:13:53.390Z,9.57
2022-10-19T23:16:21.076Z,9.55
2022-10-19T23:18:50.147Z,9.53
2022-10-19T23:21:17.813Z,9.50
2022-10-19T23:23:45.480Z,9.45
2022-10-19T23:26:15.090Z,9.42
2022-10-19T23:28:44.761Z,9.40
2022-10-19T23:31:14.801Z,9.37
2022-10-19T23:33:42.908Z,9.33
2022-10-19T23:36:14.250Z,9.30
2022-10-19T23:38:42.013Z,9.25
2022-10-19T23:41:09.724Z,9.21
2022-10-19T23:43:38.363Z,9.20
2022-10-19T23:46:06.223Z,9.17
2022-10-19T23:48:34.780Z,9.17
2022-10-19T23:51:04.704Z,9.16
2022-10-19T23:53:38.419Z,9.14
2022-10-19T23:56:10.491Z,9.11
2022-10-19T23:58:38.122Z,9.09
